createdAt,value
2023-02-17T00:01:44.670Z,94.50
2023-02-17T00:04:14.932Z,94.60
2023-02-17T00:06:43.810Z,94.70
2023-02-17T00:09:12.602Z,94.80
2023-02-17T00:11:41.442Z,94.80
2023-02-17T00:14:13.185Z,94.80
2023-02-17T00:16:42.497Z,94.90
2023-02-17T00:19:25.242Z,94.90
2023-02-17T00:21:57.710Z,94.90
2023-02-17T00:24:28.121Z,94.90
2023-02-17T00:26:57.270Z,94.90
2023-02-17T00:29:26.102Z,94.90
2023-02-17T00:31:55.487Z,94.80
2023-02-17T00:34:25.391Z,94.90
2023-02-17T00:36:55.724Z,95.00
2023-02-17T00:39:24.561Z,95.00
2023-02-17T00:41:53.601Z,95.00
2023-02-17T00:44:24.814Z,95.10
2023-02-17T00:46:56.681Z,95.00
2023-02-17T00:49:27.588Z,95.10
2023-02-17T00:52:01.133Z,95.10
2023-02-17T00:54:30.324Z,95.10
2023-02-17T00:56:59.101Z,95.10
2023-02-17T00:59:27.867Z,95.10
2023-02-17T01:01:56.914Z,95.20
2023-02-17T01:04:25.829Z,95.10
2023-02-17T01:06:54.755Z,95.20
2023-02-17T01:09:26.953Z,95.20
2023-02-17T01:12:14.948Z,95.20
2023-02-17T01:14:43.812Z,95.30
2023-02-17T01:17:12.631Z,95.30
2023-02-17T01:19:41.437Z,95.40
2023-02-17T01:22:12.253Z,95.40
2023-02-17T01:24:42.771Z,95.50
2023-02-17T01:27:11.727Z,95.60
2023-02-17T01:29:40.803Z,95.70
2023-02-17T01:32:09.704Z,95.90
2023-02-17T01:34:39.630Z,96.00
2023-02-17T01:37:08.528Z,96.10
2023-02-17T01:39:38.299Z,96.20
2023-02-17T01:42:15.776Z,96.20
2023-02-17T01:45:26.216Z,96.10
2023-02-17T01:47:59.948Z,96.20
2023-02-17T01:50:34.489Z,96.10
2023-02-17T01:53:05.324Z,96.10
2023-02-17T01:55:36.285Z,96.20
2023-02-17T01:58:10.403Z,96.30
2023-02-17T02:00:40.167Z,96.30
2023-02-17T02:03:12.267Z,96.30
2023-02-17T02:05:42.792Z,96.40
2023-02-17T02:08:13.692Z,96.50
2023-02-17T02:10:42.602Z,96.50
2023-02-17T02:13:13.174Z,96.50
2023-02-17T02:15:48.668Z,96.50
2023-02-17T02:18:36.954Z,96.50
2023-02-17T02:22:02.605Z,96.60
2023-02-17T02:24:48.262Z,96.60
2023-02-17T02:27:52.388Z,96.60
2023-02-17T02:30:52.446Z,96.70
2023-02-17T02:33:35.469Z,96.80
2023-02-17T02:36:12.176Z,96.90
2023-02-17T02:38:46.017Z,97.00
2023-02-17T02:41:20.894Z,97.30
2023-02-17T02:43:50.470Z,97.10
2023-02-17T02:46:19.440Z,97.00
2023-02-17T02:48:51.415Z,97.00
2023-02-17T02:51:32.606Z,97.00
2023-02-17T02:54:32.237Z,97.00
2023-02-17T02:57:21.007Z,97.10
2023-02-17T03:00:05.880Z,97.00
2023-02-17T03:02:44.409Z,97.00
2023-02-17T03:05:19.976Z,97.00
2023-02-17T03:07:55.345Z,97.00
2023-02-17T03:10:24.421Z,97.00
2023-02-17T03:12:53.712Z,97.00
2023-02-17T03:15:27.263Z,97.20
2023-02-17T03:17:59.061Z,97.10
2023-02-17T03:20:32.733Z,97.00
2023-02-17T03:23:01.749Z,96.90
2023-02-17T03:25:30.985Z,96.80
2023-02-17T03:28:00.154Z,96.70
2023-02-17T03:30:29.057Z,96.60
2023-02-17T03:32:57.898Z,96.50
2023-02-17T03:35:26.802Z,96.50
2023-02-17T03:37:57.068Z,96.50
2023-02-17T03:40:25.851Z,96.50
2023-02-17T03:42:54.728Z,96.50
2023-02-17T03:45:23.547Z,96.50
2023-02-17T03:47:52.534Z,96.40
2023-02-17T03:50:21.495Z,96.40
2023-02-17T03:52:50.629Z,96.40
2023-02-17T03:55:20.854Z,96.40
2023-02-17T03:57:49.870Z,96.30
2023-02-17T04:00:18.920Z,96.40
2023-02-17T04:02:47.840Z,96.40
2023-02-17T04:05:16.840Z,96.50
2023-02-17T04:07:51.351Z,96.50
2023-02-17T04:10:22.913Z,96.40
2023-02-17T04:12:52.076Z,96.30
2023-02-17T04:15:21.088Z,96.40
2023-02-17T04:17:49.954Z,96.30
2023-02-17T04:20:19.042Z,96.30
2023-02-17T04:22:47.846Z,96.30
2023-02-17T04:25:16.690Z,96.40
2023-02-17T04:27:47.131Z,96.40
2023-02-17T04:30:17.006Z,96.30
2023-02-17T04:32:46.016Z,96.40
2023-02-17T04:35:14.779Z,96.40
2023-02-17T04:37:43.605Z,96.40
2023-02-17T04:40:13.710Z,96.40
2023-02-17T04:42:42.631Z,96.50
2023-02-17T04:45:14.021Z,96.50
2023-02-17T04:47:43.011Z,96.60
2023-02-17T04:50:12.839Z,96.60
2023-02-17T04:52:41.660Z,96.50
2023-02-17T04:55:10.912Z,96.50
2023-02-17T04:57:39.839Z,96.40
2023-02-17T05:00:10.222Z,96.40
2023-02-17T05:02:40.496Z,96.40
2023-02-17T05:05:10.413Z,96.40
2023-02-17T05:07:39.296Z,96.40
2023-02-17T05:10:08.860Z,96.50
2023-02-17T05:12:37.984Z,96.60
2023-02-17T05:15:08.000Z,96.60
2023-02-17T05:17:37.138Z,96.70
2023-02-17T05:20:09.233Z,96.80
2023-02-17T05:22:38.421Z,96.80
2023-02-17T05:25:07.859Z,96.80
2023-02-17T05:27:36.724Z,96.70
2023-02-17T05:30:06.535Z,96.60
2023-02-17T05:32:35.430Z,96.50
2023-02-17T05:35:04.261Z,96.50
2023-02-17T05:37:34.654Z,96.50
2023-02-17T05:40:03.836Z,96.50
2023-02-17T05:42:32.960Z,96.80
2023-02-17T05:45:01.804Z,97.80
2023-02-17T05:47:31.744Z,99.30
2023-02-17T05:50:19.157Z,99.90
2023-02-17T05:52:52.460Z,99.90
2023-02-17T05:55:22.408Z,99.60
2023-02-17T05:57:51.197Z,99.30
2023-02-17T06:00:20.146Z,99.20
2023-02-17T06:02:49.315Z,99.20
2023-02-17T06:05:18.445Z,99.00
2023-02-17T06:07:47.283Z,99.20
2023-02-17T06:10:17.686Z,98.20
2023-02-17T06:12:46.590Z,95.30
2023-02-17T06:15:15.538Z,91.30
2023-02-17T06:17:44.508Z,88.80
2023-02-17T06:20:14.235Z,87.40
2023-02-17T06:22:43.569Z,86.50
2023-02-17T06:25:12.620Z,87.30
2023-02-17T06:27:44.268Z,89.00
2023-02-17T06:30:14.964Z,88.20
2023-02-17T06:32:43.852Z,83.90
2023-02-17T06:35:12.664Z,81.60
2023-02-17T06:37:41.535Z,79.50
2023-02-17T06:40:11.895Z,77.50
2023-02-17T06:42:42.338Z,77.60
2023-02-17T06:45:11.728Z,77.40
2023-02-17T06:47:40.563Z,75.90
2023-02-17T06:50:11.945Z,74.00
2023-02-17T06:52:41.047Z,72.70
2023-02-17T06:55:10.566Z,72.50
2023-02-17T06:57:39.413Z,72.10
2023-02-17T07:00:10.907Z,72.50
2023-02-17T07:02:40.154Z,71.80
2023-02-17T07:05:09.972Z,71.80
2023-02-17T07:07:38.783Z,74.80
2023-02-17T07:10:08.969Z,75.70
2023-02-17T07:12:38.078Z,73.30
2023-02-17T07:15:12.047Z,71.50
2023-02-17T07:17:41.342Z,70.80
2023-02-17T07:20:11.623Z,69.90
2023-02-17T07:22:40.743Z,67.80
2023-02-17T07:25:09.945Z,66.00
2023-02-17T07:27:39.002Z,67.20
2023-02-17T07:30:10.776Z,68.30
2023-02-17T07:32:39.698Z,68.10
2023-02-17T07:35:08.683Z,69.70
2023-02-17T07:37:37.604Z,67.60
2023-02-17T07:40:07.838Z,66.90
2023-02-17T07:42:36.772Z,62.60
2023-02-17T07:45:07.344Z,60.00
2023-02-17T07:47:37.602Z,57.70
2023-02-17T07:50:07.623Z,58.30
2023-02-17T07:52:36.617Z,58.30
2023-02-17T07:55:05.740Z,59.50
2023-02-17T07:57:34.535Z,61.30
2023-02-17T08:00:03.767Z,58.70
2023-02-17T08:02:42.904Z,56.80
2023-02-17T08:05:11.951Z,56.70
2023-02-17T08:07:40.759Z,55.60
2023-02-17T08:10:29.991Z,55.60
2023-02-17T08:13:16.091Z,56.10
2023-02-17T08:15:45.004Z,56.10
2023-02-17T08:18:15.235Z,54.90
2023-02-17T08:20:44.087Z,52.20
2023-02-17T08:23:13.962Z,50.90
2023-02-17T08:26:02.065Z,51.20
2023-02-17T08:28:31.109Z,49.20
2023-02-17T08:31:00.103Z,49.40
2023-02-17T08:33:30.474Z,49.70
2023-02-17T08:35:59.294Z,48.70
2023-02-17T08:38:28.247Z,48.00
2023-02-17T08:40:57.048Z,46.60
2023-02-17T08:43:25.987Z,45.50
2023-02-17T08:45:55.049Z,45.00
2023-02-17T08:48:23.902Z,44.60
2023-02-17T08:50:54.401Z,45.30
2023-02-17T08:53:23.442Z,45.50
2023-02-17T08:55:52.262Z,45.00
2023-02-17T08:58:21.108Z,44.30
2023-02-17T09:00:50.461Z,43.70
2023-02-17T09:03:19.405Z,44.30
2023-02-17T09:05:49.971Z,43.10
2023-02-17T09:08:20.963Z,41.50
2023-02-17T09:10:50.001Z,40.70
2023-02-17T09:13:19.431Z,40.10
2023-02-17T09:15:49.643Z,40.10
2023-02-17T09:18:18.676Z,38.70
2023-02-17T09:20:47.459Z,38.70
2023-02-17T09:23:16.753Z,40.30
2023-02-17T09:25:47.474Z,41.40
2023-02-17T09:28:16.536Z,41.80
2023-02-17T09:30:45.553Z,42.30
2023-02-17T09:33:14.583Z,40.70
2023-02-17T09:35:44.621Z,40.50
2023-02-17T09:38:13.510Z,38.70
2023-02-17T09:40:48.715Z,38.90
2023-02-17T09:43:20.329Z,38.90
2023-02-17T09:45:53.029Z,38.00
2023-02-17T09:48:27.140Z,37.60
2023-02-17T09:51:01.718Z,37.20
2023-02-17T09:53:38.082Z,37.30
2023-02-17T09:56:15.456Z,35.00
2023-02-17T09:58:49.092Z,34.60
2023-02-17T10:01:23.252Z,34.60
2023-02-17T10:03:57.094Z,33.60
2023-02-17T10:06:30.728Z,33.10
2023-02-17T10:09:05.294Z,33.30
2023-02-17T10:11:37.730Z,33.00
2023-02-17T10:14:12.557Z,32.60
2023-02-17T10:16:48.989Z,30.70
2023-02-17T10:19:23.537Z,30.80
2023-02-17T10:22:03.969Z,31.20
2023-02-17T10:24:32.935Z,31.30
2023-02-17T10:27:29.496Z,31.30
2023-02-17T10:30:13.923Z,31.30
2023-02-17T10:32:52.931Z,30.20
2023-02-17T10:35:30.424Z,30.10
2023-02-17T10:38:07.683Z,29.90
2023-02-17T10:40:36.722Z,29.60
2023-02-17T10:43:10.605Z,30.00
2023-02-17T10:45:43.276Z,30.00
2023-02-17T10:48:16.992Z,29.70
2023-02-17T10:50:54.394Z,29.70
2023-02-17T10:53:36.738Z,30.10
2023-02-17T10:56:14.638Z,29.20
2023-02-17T10:58:55.637Z,29.60
2023-02-17T11:01:24.697Z,29.10
2023-02-17T11:04:03.105Z,28.60
2023-02-17T11:06:33.893Z,27.90
2023-02-17T11:09:07.935Z,27.60
2023-02-17T11:11:39.254Z,28.20
2023-02-17T11:14:20.709Z,28.10
2023-02-17T11:16:53.915Z,28.50
2023-02-17T11:19:25.968Z,27.80
2023-02-17T11:21:56.978Z,27.90
2023-02-17T11:24:26.424Z,28.30
2023-02-17T11:27:01.033Z,29.10
2023-02-17T11:29:32.855Z,29.30
2023-02-17T11:32:04.985Z,29.40
2023-02-17T11:34:35.159Z,28.60
2023-02-17T11:37:07.500Z,28.10
2023-02-17T11:39:41.082Z,27.60
2023-02-17T11:42:23.465Z,27.70
2023-02-17T11:44:59.319Z,27.20
2023-02-17T11:47:41.063Z,27.10
2023-02-17T11:50:41.319Z,27.40
2023-02-17T11:53:28.273Z,27.40
2023-02-17T11:56:12.417Z,27.20
2023-02-17T11:59:15.337Z,27.60
2023-02-17T12:02:07.978Z,27.70
2023-02-17T12:04:42.950Z,28.50
2023-02-17T12:07:35.858Z,29.10
2023-02-17T12:10:12.315Z,29.70
2023-02-17T12:12:57.266Z,30.00
2023-02-17T12:16:02.099Z,30.50
2023-02-17T12:18:50.193Z,30.60
2023-02-17T12:21:31.504Z,30.30
2023-02-17T12:24:23.063Z,30.90
2023-02-17T12:27:02.231Z,31.70
2023-02-17T12:29:55.966Z,31.50
2023-02-17T12:32:41.962Z,31.90
2023-02-17T12:35:20.773Z,31.30
2023-02-17T12:37:57.692Z,30.40
2023-02-17T12:40:36.226Z,30.70
2023-02-17T12:43:25.730Z,31.00
2023-02-17T12:45:58.487Z,31.30
2023-02-17T12:48:35.317Z,31.90
2023-02-17T12:51:10.784Z,31.90
2023-02-17T12:53:44.725Z,31.00
2023-02-17T12:56:39.854Z,30.80
2023-02-17T12:59:15.919Z,30.50
2023-02-17T13:01:54.314Z,30.00
2023-02-17T13:04:26.822Z,30.40
2023-02-17T13:07:06.661Z,31.70
2023-02-17T13:09:38.425Z,32.50
2023-02-17T13:12:33.849Z,33.30
2023-02-17T13:15:05.420Z,33.70
2023-02-17T13:17:38.445Z,33.40
2023-02-17T13:20:31.735Z,33.30
2023-02-17T13:23:12.036Z,33.90
2023-02-17T13:25:41.707Z,33.20
2023-02-17T13:28:36.074Z,33.30
2023-02-17T13:31:20.236Z,33.00
2023-02-17T13:33:56.187Z,32.50
2023-02-17T13:36:39.192Z,32.00
2023-02-17T13:39:34.946Z,31.60
2023-02-17T13:42:04.202Z,31.60
2023-02-17T13:44:35.609Z,31.90
2023-02-17T13:47:14.214Z,32.60
2023-02-17T13:49:43.308Z,33.10
2023-02-17T13:52:18.551Z,33.30
2023-02-17T13:54:57.568Z,33.40
2023-02-17T13:57:31.567Z,33.20
2023-02-17T14:00:09.354Z,33.30
2023-02-17T14:02:47.323Z,33.50
2023-02-17T14:05:21.640Z,33.50
2023-02-17T14:07:52.945Z,33.70
2023-02-17T14:10:26.464Z,33.90
2023-02-17T14:12:56.360Z,34.40
2023-02-17T14:15:29.652Z,34.30
2023-02-17T14:17:58.804Z,33.80
2023-02-17T14:20:30.651Z,34.60
2023-02-17T14:23:09.035Z,35.10
2023-02-17T14:25:45.119Z,35.40
2023-02-17T14:28:21.778Z,35.60
2023-02-17T14:31:14.476Z,35.50
2023-02-17T14:33:57.644Z,36.40
2023-02-17T14:36:35.519Z,35.90
2023-02-17T14:39:08.183Z,35.90
2023-02-17T14:41:38.935Z,35.70
2023-02-17T14:44:10.100Z,35.70
2023-02-17T14:46:42.528Z,35.50
2023-02-17T14:49:11.550Z,35.90
2023-02-17T14:51:41.879Z,35.20
2023-02-17T14:54:16.193Z,35.50
2023-02-17T14:56:52.949Z,35.70
2023-02-17T14:59:21.876Z,36.00
2023-02-17T15:01:50.707Z,36.00
2023-02-17T15:04:19.631Z,36.20
2023-02-17T15:06:50.923Z,36.40
2023-02-17T15:09:22.646Z,36.70
2023-02-17T15:11:54.112Z,36.80
2023-02-17T15:14:23.387Z,37.10
2023-02-17T15:16:56.750Z,37.30
2023-02-17T15:19:29.930Z,37.50
2023-02-17T15:22:01.575Z,37.80
2023-02-17T15:24:33.605Z,38.00
2023-02-17T15:27:05.492Z,38.30
2023-02-17T15:29:35.938Z,38.70
2023-02-17T15:32:12.319Z,38.90
2023-02-17T15:34:47.001Z,39.40
2023-02-17T15:37:16.228Z,39.60
2023-02-17T15:39:45.066Z,39.70
2023-02-17T15:42:16.739Z,40.10
2023-02-17T15:44:49.439Z,40.40
2023-02-17T15:47:20.764Z,40.70
2023-02-17T15:49:49.997Z,41.10
2023-02-17T15:52:18.888Z,41.40
2023-02-17T15:54:48.556Z,41.90
2023-02-17T15:57:41.249Z,42.10
2023-02-17T16:00:20.043Z,42.80
2023-02-17T16:02:49.408Z,43.30
2023-02-17T16:05:23.502Z,44.10
2023-02-17T16:07:53.344Z,43.80
2023-02-17T16:10:24.664Z,44.30
2023-02-17T16:12:58.444Z,44.70
2023-02-17T16:15:46.255Z,45.20
2023-02-17T16:18:22.627Z,45.40
2023-02-17T16:20:53.779Z,45.80
2023-02-17T16:23:22.884Z,46.10
2023-02-17T16:25:52.281Z,46.60
2023-02-17T16:28:24.374Z,46.80
2023-02-17T16:30:53.727Z,47.10
2023-02-17T16:33:22.632Z,47.40
2023-02-17T16:35:52.826Z,47.90
2023-02-17T16:38:39.992Z,48.00
2023-02-17T16:41:09.518Z,48.40
2023-02-17T16:43:40.053Z,48.60
2023-02-17T16:46:17.895Z,48.70
2023-02-17T16:48:46.900Z,49.20
2023-02-17T16:51:16.218Z,49.40
2023-02-17T16:53:45.077Z,49.60
2023-02-17T16:56:20.183Z,49.90
2023-02-17T16:58:50.721Z,50.00
2023-02-17T17:01:19.658Z,50.30
2023-02-17T17:03:48.515Z,50.40
2023-02-17T17:06:22.125Z,50.40
2023-02-17T17:08:51.397Z,50.50
2023-02-17T17:11:22.268Z,50.60
2023-02-17T17:13:53.544Z,51.70
2023-02-17T17:16:26.183Z,51.90
2023-02-17T17:18:55.710Z,52.00
2023-02-17T17:21:24.554Z,52.20
2023-02-17T17:23:53.471Z,52.70
2023-02-17T17:26:27.603Z,52.80
2023-02-17T17:28:58.252Z,53.10
2023-02-17T17:31:28.646Z,53.50
2023-02-17T17:33:57.820Z,54.00
2023-02-17T17:36:32.064Z,54.30
2023-02-17T17:39:03.531Z,54.70
2023-02-17T17:41:33.504Z,54.80
2023-02-17T17:44:04.474Z,55.00
2023-02-17T17:46:35.822Z,55.10
2023-02-17T17:49:06.648Z,55.30
2023-02-17T17:51:35.874Z,55.70
2023-02-17T17:54:06.653Z,56.10
2023-02-17T17:56:39.345Z,56.40
2023-02-17T17:59:10.222Z,56.70
2023-02-17T18:01:40.651Z,56.90
2023-02-17T18:04:10.793Z,57.40
2023-02-17T18:06:43.474Z,57.40
2023-02-17T18:09:30.588Z,57.70
2023-02-17T18:12:04.358Z,58.20
2023-02-17T18:14:39.256Z,58.50
2023-02-17T18:17:11.225Z,58.70
2023-02-17T18:19:41.347Z,59.00
2023-02-17T18:22:10.928Z,59.30
2023-02-17T18:24:43.145Z,59.60
2023-02-17T18:27:13.729Z,59.80
2023-02-17T18:29:44.675Z,60.20
2023-02-17T18:32:14.219Z,60.70
2023-02-17T18:34:43.239Z,60.90
2023-02-17T18:37:12.682Z,61.00
2023-02-17T18:39:42.336Z,61.20
2023-02-17T18:42:12.863Z,61.60
2023-02-17T18:44:43.309Z,61.90
2023-02-17T18:47:13.995Z,62.20
2023-02-17T18:49:44.590Z,62.30
2023-02-17T18:52:15.551Z,62.40
2023-02-17T18:54:45.817Z,62.50
2023-02-17T18:57:15.614Z,62.60
2023-02-17T18:59:46.185Z,62.80
2023-02-17T19:02:18.241Z,62.90
2023-02-17T19:04:47.369Z,63.40
2023-02-17T19:07:16.412Z,63.80
2023-02-17T19:09:45.249Z,64.20
2023-02-17T19:12:14.614Z,64.40
2023-02-17T19:14:44.336Z,64.50
2023-02-17T19:17:14.082Z,64.80
2023-02-17T19:19:46.114Z,64.90
2023-02-17T19:22:15.117Z,64.90
2023-02-17T19:24:44.703Z,65.00
2023-02-17T19:27:14.325Z,65.10
2023-02-17T19:29:43.272Z,65.40
2023-02-17T19:32:12.392Z,65.60
2023-02-17T19:34:43.956Z,66.00
2023-02-17T19:37:13.287Z,66.40
2023-02-17T19:39:42.958Z,66.80
2023-02-17T19:42:16.067Z,67.10
2023-02-17T19:44:45.630Z,67.40
2023-02-17T19:47:14.783Z,67.70
2023-02-17T19:49:45.399Z,68.10
2023-02-17T19:52:15.645Z,68.50
2023-02-17T19:54:45.516Z,68.90
2023-02-17T19:57:17.993Z,69.30
2023-02-17T19:59:47.580Z,69.70
2023-02-17T20:02:19.032Z,70.30
2023-02-17T20:05:08.782Z,70.60
2023-02-17T20:07:37.752Z,70.90
2023-02-17T20:10:10.922Z,71.20
2023-02-17T20:12:42.889Z,71.60
2023-02-17T20:15:12.420Z,72.00
2023-02-17T20:17:41.328Z,72.40
2023-02-17T20:20:15.127Z,72.50
2023-02-17T20:22:44.830Z,72.80
2023-02-17T20:25:13.865Z,73.10
2023-02-17T20:27:42.701Z,73.20
2023-02-17T20:30:12.694Z,73.40
2023-02-17T20:32:42.466Z,73.70
2023-02-17T20:35:16.215Z,73.90
2023-02-17T20:37:45.426Z,74.40
2023-02-17T20:40:15.012Z,74.40
2023-02-17T20:42:44.133Z,74.50
2023-02-17T20:45:13.668Z,74.70
2023-02-17T20:47:42.548Z,74.90
2023-02-17T20:50:18.665Z,75.20
2023-02-17T20:52:47.824Z,75.50
2023-02-17T20:55:18.124Z,75.60
2023-02-17T20:57:52.721Z,75.90
2023-02-17T21:00:24.822Z,76.10
2023-02-17T21:02:54.174Z,76.50
2023-02-17T21:05:27.987Z,76.80
2023-02-17T21:08:00.886Z,77.20
2023-02-17T21:10:34.875Z,77.40
2023-02-17T21:13:06.354Z,77.90
2023-02-17T21:15:36.518Z,78.10
2023-02-17T21:18:06.009Z,78.40
2023-02-17T21:20:36.499Z,78.60
2023-02-17T21:23:07.082Z,79.00
2023-02-17T21:25:37.124Z,79.20
2023-02-17T21:28:07.637Z,79.40
2023-02-17T21:30:36.876Z,79.50
2023-02-17T21:33:07.186Z,79.80
2023-02-17T21:35:39.979Z,80.70
2023-02-17T21:38:10.460Z,80.40
2023-02-17T21:40:39.977Z,80.60
2023-02-17T21:43:40.332Z,80.90
2023-02-17T21:46:11.150Z,81.20
2023-02-17T21:48:44.357Z,81.40
2023-02-17T21:51:16.365Z,81.60
2023-02-17T21:53:46.990Z,81.80
2023-02-17T21:56:16.925Z,82.10
2023-02-17T21:58:48.822Z,82.40
2023-02-17T22:01:19.300Z,82.60
2023-02-17T22:03:48.242Z,82.80
2023-02-17T22:06:20.963Z,83.00
2023-02-17T22:08:50.447Z,83.10
2023-02-17T22:11:20.627Z,83.20
2023-02-17T22:13:49.894Z,83.20
2023-02-17T22:16:19.415Z,83.50
2023-02-17T22:18:48.224Z,83.70
2023-02-17T22:21:19.843Z,83.90
2023-02-17T22:23:49.219Z,84.10
2023-02-17T22:26:19.998Z,84.30
2023-02-17T22:28:49.083Z,85.00
2023-02-17T22:31:20.555Z,85.20
2023-02-17T22:34:10.091Z,85.00
2023-02-17T22:36:40.707Z,84.80
2023-02-17T22:39:10.535Z,84.70
2023-02-17T22:41:41.309Z,85.00
2023-02-17T22:44:10.618Z,85.40
2023-02-17T22:46:39.715Z,85.70
2023-02-17T22:49:08.790Z,85.90
2023-02-17T22:51:41.667Z,86.20
2023-02-17T22:54:11.118Z,86.40
2023-02-17T22:56:42.906Z,86.50
2023-02-17T22:59:11.837Z,86.70
2023-02-17T23:01:41.051Z,87.00
2023-02-17T23:04:14.071Z,87.20
2023-02-17T23:06:45.905Z,87.60
2023-02-17T23:09:33.170Z,87.80
2023-02-17T23:12:02.099Z,87.90
2023-02-17T23:14:34.681Z,88.20
2023-02-17T23:17:06.244Z,88.40
2023-02-17T23:19:35.914Z,88.70
2023-02-17T23:22:08.452Z,89.10
2023-02-17T23:24:37.276Z,89.20
2023-02-17T23:27:06.856Z,89.40
2023-02-17T23:29:38.138Z,89.50
2023-02-17T23:32:07.913Z,89.60
2023-02-17T23:34:37.099Z,89.90
2023-02-17T23:37:07.566Z,90.00
2023-02-17T23:39:39.120Z,90.10
2023-02-17T23:42:08.284Z,90.30
2023-02-17T23:44:37.759Z,90.40
2023-02-17T23:47:08.524Z,90.40
2023-02-17T23:49:38.191Z,90.50
2023-02-17T23:52:08.732Z,90.70
2023-02-17T23:54:39.600Z,90.70
2023-02-17T23:57:10.387Z,90.80
2023-02-17T23:59:39.997Z,90.90
